Time;durP1;ratioP1;P1;durP2;ratioP2;P2;SDS_P1;SDS_P2;PMS_P1;PMS_P2;Temp;Humidity;BMP_temperature;BMP_pressure;BME280_temperature;BME280_humidity;BME280_pressure;Samples;Min_cycle;Max_cycle;Signal;HPM_P1;HPM_P2
2021/03/10 00:00:37;;;;;;;20.08;7.60;;;10.90;37.10;;;;;;6153659;28;20039;-78
2021/03/10 00:03:38;;;;;;;20.05;7.22;;;10.90;37.40;;;;;;6172219;29;20039;-77
2021/03/10 00:06:39;;;;;;;17.73;8.25;;;10.90;37.60;;;;;;6155823;29;20421;-78
2021/03/10 00:09:40;;;;;;;20.90;7.57;;;10.80;37.60;;;;;;6113353;29;20102;-78
2021/03/10 00:12:43;;;;;;;18.30;7.93;;;10.70;37.70;;;;;;6139643;29;20424;-78
2021/03/10 00:15:44;;;;;;;17.35;7.97;;;10.70;37.80;;;;;;6141196;29;20372;-78
2021/03/10 00:18:46;;;;;;;22.10;8.25;;;10.70;37.70;;;;;;6152280;28;20046;-78
2021/03/10 00:21:49;;;;;;;20.83;6.95;;;10.70;37.70;;;;;;6138081;29;20031;-78
2021/03/10 00:24:50;;;;;;;18.27;7.05;;;10.70;37.70;;;;;;6123879;29;20031;-78
2021/03/10 00:27:51;;;;;;;18.10;7.63;;;10.60;37.70;;;;;;6134485;29;20452;-78
2021/03/10 00:30:51;;;;;;;20.70;7.82;;;10.60;37.90;;;;;;6134839;29;20042;-78
2021/03/10 00:33:52;;;;;;;14.45;7.15;;;10.60;38.00;;;;;;6139039;29;20524;-78
2021/03/10 00:36:53;;;;;;;21.23;7.50;;;10.50;38.00;;;;;;6140258;29;20047;-78
2021/03/10 00:39:54;;;;;;;16.45;6.30;;;10.50;38.10;;;;;;6136707;29;20126;-77
2021/03/10 00:42:55;;;;;;;18.17;7.88;;;10.50;38.30;;;;;;6119214;29;20046;-77
2021/03/10 00:45:56;;;;;;;20.02;8.13;;;10.40;38.40;;;;;;6135014;29;20053;-77
2021/03/10 00:48:58;;;;;;;15.70;6.70;;;10.40;38.60;;;;;;6133914;29;20051;-77
2021/03/10 00:51:59;;;;;;;18.05;6.78;;;10.40;38.70;;;;;;6134807;29;20059;-77
2021/03/10 00:55:00;;;;;;;12.13;5.53;;;10.30;38.70;;;;;;6118739;29;20062;-78
2021/03/10 00:58:01;;;;;;;16.02;7.18;;;10.30;38.80;;;;;;6134474;29;20035;-77
2021/03/10 01:01:02;;;;;;;16.65;7.45;;;10.30;38.90;;;;;;6118978;29;20035;-77
2021/03/10 01:04:04;;;;;;;14.38;6.97;;;10.30;39.00;;;;;;6151302;29;20063;-78
2021/03/10 01:07:05;;;;;;;15.90;6.18;;;10.20;39.20;;;;;;6134702;29;20043;-78
2021/03/10 01:10:08;;;;;;;17.70;7.18;;;10.20;39.50;;;;;;6133725;29;20342;-78
2021/03/10 01:13:09;;;;;;;16.15;7.32;;;10.10;39.60;;;;;;6116220;29;20035;-78
2021/03/10 01:16:10;;;;;;;17.55;7.10;;;10.10;39.80;;;;;;6151635;29;20476;-78
2021/03/10 01:19:11;;;;;;;27.08;8.10;;;10.10;40.00;;;;;;6101705;29;20055;-79
2021/03/10 01:22:12;;;;;;;17.55;7.53;;;10.00;40.00;;;;;;6151449;29;20346;-79
2021/03/10 01:25:14;;;;;;;18.38;8.23;;;10.00;40.00;;;;;;6116159;29;20040;-79
2021/03/10 01:28:15;;;;;;;19.58;8.98;;;10.00;40.10;;;;;;6121032;29;20032;-78
2021/03/10 01:31:16;;;;;;;18.05;7.40;;;10.00;40.30;;;;;;6150935;28;20043;-78
2021/03/10 01:34:16;;;;;;;18.63;7.80;;;9.90;40.30;;;;;;6140040;29;20094;-79
2021/03/10 01:37:18;;;;;;;12.80;6.53;;;9.90;40.50;;;;;;6120427;28;20051;-78
2021/03/10 01:40:19;;;;;;;17.88;7.40;;;9.80;41.60;;;;;;6138677;29;20039;-79
2021/03/10 01:43:20;;;;;;;18.63;8.05;;;9.70;41.10;;;;;;6139759;29;20054;-79
2021/03/10 01:46:21;;;;;;;20.65;7.57;;;9.60;41.10;;;;;;6156558;29;20043;-79
2021/03/10 01:49:23;;;;;;;18.58;7.10;;;9.60;41.80;;;;;;6129592;29;20382;-79
2021/03/10 01:52:24;;;;;;;22.77;8.60;;;9.60;41.30;;;;;;6137976;29;20444;-79
2021/03/10 01:55:26;;;;;;;19.33;7.82;;;9.60;41.40;;;;;;6139612;29;20053;-78
2021/03/10 01:58:28;;;;;;;20.65;8.05;;;9.60;41.50;;;;;;6124494;29;20035;-78
2021/03/10 02:01:29;;;;;;;19.15;7.50;;;9.60;41.50;;;;;;6127152;29;20035;-78
2021/03/10 02:04:30;;;;;;;16.27;6.07;;;9.60;41.60;;;;;;6119079;29;20311;-78
2021/03/10 02:07:38;;;;;;;22.00;8.02;;;9.60;41.70;;;;;;6136013;28;20038;-78
2021/03/10 02:11:09;;;;;;;18.40;7.87;;;9.60;41.80;;;;;;6152791;29;20035;-78
2021/03/10 02:14:23;;;;;;;25.98;8.30;;;9.60;41.90;;;;;;6138957;29;20063;-78
2021/03/10 02:17:32;;;;;;;17.83;7.15;;;9.50;42.10;;;;;;6138847;28;20473;-78
2021/03/10 02:20:44;;;;;;;18.52;7.22;;;9.40;42.20;;;;;;6141276;28;20046;-78
2021/03/10 02:24:17;;;;;;;21.13;8.85;;;9.40;42.30;;;;;;6133268;29;20051;-78
2021/03/10 02:27:47;;;;;;;20.15;7.57;;;9.40;42.40;;;;;;6141365;28;20045;-79
2021/03/10 02:30:51;;;;;;;16.38;7.68;;;9.30;42.70;;;;;;6120552;28;20089;-78
2021/03/10 02:33:52;;;;;;;16.90;7.60;;;9.20;42.80;;;;;;6138644;28;20059;-78
2021/03/10 02:36:55;;;;;;;22.27;7.95;;;9.10;42.90;;;;;;6135232;28;20054;-78
2021/03/10 02:39:57;;;;;;;20.83;8.07;;;9.10;43.00;;;;;;6138030;29;20031;-78
2021/03/10 02:42:59;;;;;;;18.63;6.95;;;9.00;43.00;;;;;;6134911;29;20047;-78
2021/03/10 02:46:03;;;;;;;17.48;6.97;;;9.00;43.00;;;;;;6151836;28;20416;-78
2021/03/10 02:49:07;;;;;;;16.55;7.15;;;9.00;43.10;;;;;;6139643;28;20035;-78
2021/03/10 02:52:10;;;;;;;24.45;8.40;;;9.00;43.00;;;;;;6141659;29;20046;-77
2021/03/10 02:55:12;;;;;;;23.33;7.47;;;9.00;43.10;;;;;;6134515;28;20464;-78
2021/03/10 02:58:14;;;;;;;19.67;7.85;;;9.00;43.10;;;;;;6145233;28;20768;-78
2021/03/10 03:01:15;;;;;;;16.38;6.70;;;9.00;43.10;;;;;;6119997;28;20058;-78
2021/03/10 03:04:16;;;;;;;18.65;7.75;;;9.00;43.10;;;;;;6149923;28;20122;-78
2021/03/10 03:07:18;;;;;;;15.93;8.30;;;9.00;43.20;;;;;;6138106;28;20486;-78
2021/03/10 03:10:22;;;;;;;14.60;6.20;;;9.00;43.50;;;;;;6134698;29;20043;-77
2021/03/10 03:13:24;;;;;;;15.60;7.93;;;9.00;43.60;;;;;;6118327;29;20046;-78
2021/03/10 03:16:28;;;;;;;23.40;8.63;;;9.00;43.70;;;;;;6152665;28;20047;-79
2021/03/10 03:19:29;;;;;;;15.15;6.57;;;8.90;43.80;;;;;;6165206;29;20050;-79
2021/03/10 03:22:30;;;;;;;24.30;7.90;;;8.80;44.00;;;;;;6163901;29;20023;-77
2021/03/10 03:25:38;;;;;;;21.88;8.00;;;8.80;44.00;;;;;;6145888;29;20464;-78
2021/03/10 03:28:39;;;;;;;13.15;4.88;;;8.80;44.00;;;;;;6141936;29;20031;-77
2021/03/10 03:31:42;;;;;;;16.17;7.88;;;8.80;44.30;;;;;;6142590;28;20477;-77
2021/03/10 03:34:43;;;;;;;19.65;8.50;;;8.70;44.50;;;;;;6143932;28;20051;-77
2021/03/10 03:37:46;;;;;;;21.45;7.85;;;8.60;44.70;;;;;;6138353;28;20051;-77
2021/03/10 03:40:50;;;;;;;19.02;8.40;;;8.60;44.90;;;;;;6120626;29;20046;-77
2021/03/10 03:43:51;;;;;;;27.55;7.20;;;8.50;45.10;;;;;;6145744;29;20066;-77
2021/03/10 03:46:52;;;;;;;21.45;8.38;;;8.40;45.20;;;;;;6153064;28;20039;-77
2021/03/10 03:49:53;;;;;;;18.63;7.70;;;8.40;45.50;;;;;;6152986;28;20452;-79
2021/03/10 03:52:54;;;;;;;18.92;7.47;;;8.30;45.50;;;;;;6152922;28;20035;-79
2021/03/10 03:55:55;;;;;;;16.65;7.47;;;8.30;45.70;;;;;;6152941;28;20102;-79
2021/03/10 03:58:58;;;;;;;19.13;7.30;;;8.30;45.60;;;;;;6135936;29;20413;-78
2021/03/10 04:01:59;;;;;;;19.50;8.00;;;8.30;45.50;;;;;;6152767;28;20070;-78
2021/03/10 04:05:02;;;;;;;21.80;7.40;;;8.40;45.50;;;;;;6146385;29;20035;-79
2021/03/10 04:08:28;;;;;;;13.05;7.20;;;8.40;45.40;;;;;;6147439;28;20157;-80
2021/03/10 04:11:29;;;;;;;18.70;7.70;;;8.40;45.70;;;;;;6145150;28;20140;-79
2021/03/10 04:14:31;;;;;;;15.45;6.93;;;8.40;45.80;;;;;;6138897;28;20031;-79
2021/03/10 04:17:32;;;;;;;15.38;7.25;;;8.40;45.90;;;;;;6137031;28;20504;-79
2021/03/10 04:20:33;;;;;;;20.05;8.23;;;8.40;46.00;;;;;;6136009;29;20050;-78
2021/03/10 04:23:35;;;;;;;18.73;8.07;;;8.50;46.00;;;;;;6135137;28;20113;-78
2021/03/10 04:26:36;;;;;;;20.90;7.35;;;8.50;46.20;;;;;;6140458;29;20042;-78
2021/03/10 04:29:36;;;;;;;14.65;7.25;;;8.50;46.50;;;;;;6116031;29;20438;-78
2021/03/10 04:32:38;;;;;;;15.68;7.50;;;8.50;46.40;;;;;;6120424;28;20050;-78
2021/03/10 04:35:38;;;;;;;16.40;7.80;;;8.50;46.30;;;;;;6121122;29;20043;-78
2021/03/10 04:38:41;;;;;;;15.85;7.45;;;8.50;46.30;;;;;;6149647;29;20337;-78
2021/03/10 04:41:41;;;;;;;21.35;8.50;;;8.50;46.20;;;;;;6121373;29;20373;-78
2021/03/10 04:44:42;;;;;;;20.05;8.13;;;8.50;46.20;;;;;;6144136;29;20023;-77
2021/03/10 04:47:44;;;;;;;20.52;7.65;;;8.50;46.30;;;;;;6145493;28;20538;-78
2021/03/10 04:50:45;;;;;;;21.77;7.07;;;8.50;46.30;;;;;;6172675;28;20039;-78
2021/03/10 04:53:46;;;;;;;17.42;7.28;;;8.40;46.40;;;;;;6154619;28;20098;-77
2021/03/10 04:56:48;;;;;;;20.63;8.50;;;8.40;46.60;;;;;;6143527;29;20040;-77
2021/03/10 04:59:50;;;;;;;27.75;8.95;;;8.30;46.70;;;;;;6140158;29;20035;-77
2021/03/10 05:02:51;;;;;;;17.67;7.75;;;8.30;46.80;;;;;;6126040;29;20046;-77
2021/03/10 05:05:53;;;;;;;17.95;7.30;;;8.30;46.80;;;;;;6166580;29;20028;-78
2021/03/10 05:08:54;;;;;;;16.00;7.40;;;8.30;46.70;;;;;;6157643;28;20047;-77
2021/03/10 05:11:57;;;;;;;17.35;8.25;;;8.30;46.50;;;;;;6144580;28;20115;-77
2021/03/10 05:14:59;;;;;;;19.67;7.28;;;8.30;46.40;;;;;;6142499;29;20036;-77
2021/03/10 05:17:59;;;;;;;17.38;7.55;;;8.40;46.30;;;;;;6126755;29;20097;-76
2021/03/10 05:21:01;;;;;;;16.27;7.28;;;8.40;46.20;;;;;;6136599;29;20027;-77
2021/03/10 05:24:02;;;;;;;21.48;7.45;;;8.40;46.20;;;;;;6151901;29;20058;-78
2021/03/10 05:27:03;;;;;;;22.50;8.75;;;8.30;46.20;;;;;;6146500;29;20054;-77
2021/03/10 05:30:07;;;;;;;17.98;7.00;;;8.20;46.20;;;;;;6140825;29;20039;-78
2021/03/10 05:33:08;;;;;;;19.42;7.60;;;8.30;46.30;;;;;;6125383;29;20089;-79
2021/03/10 05:36:09;;;;;;;18.25;7.75;;;8.30;46.40;;;;;;6156605;29;20043;-78
2021/03/10 05:39:09;;;;;;;33.78;7.63;;;8.30;46.40;;;;;;6138791;29;20043;-77
2021/03/10 05:42:11;;;;;;;22.50;8.07;;;8.30;46.50;;;;;;6122981;29;20069;-77
2021/03/10 05:45:13;;;;;;;16.92;7.00;;;8.20;46.70;;;;;;6144201;29;20054;-77
2021/03/10 05:48:14;;;;;;;18.23;7.28;;;8.10;46.80;;;;;;6138884;29;20058;-78
2021/03/10 05:51:15;;;;;;;16.25;6.82;;;8.10;47.60;;;;;;6122416;29;20067;-77
2021/03/10 05:54:16;;;;;;;24.40;8.85;;;8.00;47.10;;;;;;6155679;29;20099;-78
2021/03/10 05:57:18;;;;;;;11.93;6.40;;;7.90;47.30;;;;;;6126316;29;20524;-78
2021/03/10 06:00:19;;;;;;;15.93;7.25;;;7.90;47.60;;;;;;6140833;29;20429;-79
2021/03/10 06:03:20;;;;;;;16.60;7.85;;;7.80;47.80;;;;;;6142366;29;20046;-78
2021/03/10 06:06:22;;;;;;;13.10;6.68;;;7.80;47.90;;;;;;6123138;29;20039;-78
2021/03/10 06:09:23;;;;;;;16.02;7.30;;;7.70;48.00;;;;;;6130190;29;20044;-79
2021/03/10 06:12:24;;;;;;;18.08;8.43;;;7.70;48.10;;;;;;6130524;29;20047;-79
2021/03/10 06:15:25;;;;;;;17.60;8.02;;;7.70;48.10;;;;;;6130557;29;20051;-78
2021/03/10 06:18:27;;;;;;;19.95;7.38;;;7.70;48.10;;;;;;6114585;29;20357;-79
2021/03/10 06:21:28;;;;;;;20.30;7.82;;;7.70;48.10;;;;;;6129925;29;20369;-78
2021/03/10 06:24:33;;;;;;;24.20;8.65;;;7.70;48.10;;;;;;6129128;29;20043;-78
2021/03/10 06:27:34;;;;;;;19.52;8.23;;;7.70;48.00;;;;;;6131241;29;20031;-79
2021/03/10 06:30:40;;;;;;;16.55;7.57;;;7.70;48.00;;;;;;6114157;29;20059;-80
2021/03/10 06:33:41;;;;;;;23.08;9.30;;;7.80;48.00;;;;;;6130174;29;20027;-79
2021/03/10 06:36:47;;;;;;;19.95;7.93;;;7.80;47.90;;;;;;6129689;29;20086;-78
2021/03/10 06:39:48;;;;;;;22.55;7.80;;;7.90;47.90;;;;;;6128486;29;20373;-79
2021/03/10 06:42:54;;;;;;;19.95;7.88;;;8.00;47.80;;;;;;6129523;29;20031;-79
2021/03/10 06:45:55;;;;;;;19.95;7.45;;;8.00;47.80;;;;;;6112752;29;20035;-78
2021/03/10 06:48:57;;;;;;;16.92;8.20;;;8.00;47.80;;;;;;6131176;29;20450;-79
2021/03/10 06:52:07;;;;;;;17.15;7.43;;;8.00;47.70;;;;;;6130836;29;20063;-79
2021/03/10 06:55:08;;;;;;;20.65;9.13;;;8.10;47.70;;;;;;6130830;29;20039;-78
2021/03/10 06:58:10;;;;;;;17.55;8.00;;;8.10;47.70;;;;;;6129232;29;20063;-79
2021/03/10 07:01:11;;;;;;;24.13;8.82;;;8.10;47.60;;;;;;6113119;29;20035;-78
2021/03/10 07:04:13;;;;;;;18.13;8.70;;;8.10;47.50;;;;;;6129190;29;20926;-77
2021/03/10 07:07:15;;;;;;;24.63;9.13;;;8.20;47.40;;;;;;6129842;29;20063;-79
2021/03/10 07:10:17;;;;;;;29.17;9.30;;;8.20;47.50;;;;;;6128193;29;20044;-78
2021/03/10 07:13:18;;;;;;;22.40;9.52;;;8.30;47.60;;;;;;6112833;29;20357;-78
2021/03/10 07:16:20;;;;;;;27.42;9.50;;;8.30;47.60;;;;;;6130812;29;20036;-77
2021/03/10 07:19:21;;;;;;;27.25;10.73;;;8.30;47.60;;;;;;6115007;29;20032;-78
2021/03/10 07:22:35;;;;;;;25.92;8.95;;;8.30;47.60;;;;;;6135625;29;20036;-79
2021/03/10 07:25:44;;;;;;;24.70;9.85;;;8.30;47.60;;;;;;6128434;29;20123;-78
2021/03/10 07:28:52;;;;;;;19.05;8.45;;;8.40;47.60;;;;;;6128627;29;20042;-80
2021/03/10 07:32:01;;;;;;;31.70;10.25;;;8.40;47.60;;;;;;6128685;29;20119;-78
2021/03/10 07:35:07;;;;;;;23.90;9.65;;;8.50;47.50;;;;;;6129358;29;20067;-79
2021/03/10 07:38:08;;;;;;;31.10;9.98;;;8.50;47.30;;;;;;6128910;29;20366;-78
2021/03/10 07:41:14;;;;;;;23.33;9.93;;;8.50;47.20;;;;;;6128626;28;20074;-79
2021/03/10 07:44:26;;;;;;;22.17;9.27;;;8.50;47.20;;;;;;6112384;29;20051;-79
2021/03/10 07:47:27;;;;;;;25.70;9.18;;;8.60;47.10;;;;;;6124527;29;20031;-78
2021/03/10 07:50:43;;;;;;;23.40;9.18;;;8.70;47.00;;;;;;6105031;29;20074;-78
2021/03/10 07:53:44;;;;;;;20.73;9.05;;;8.70;46.80;;;;;;6096917;29;20050;-78
2021/03/10 07:56:45;;;;;;;20.10;9.00;;;8.70;46.70;;;;;;6121045;29;20947;-78
2021/03/10 07:59:54;;;;;;;33.45;11.27;;;8.80;46.60;;;;;;6125290;29;20047;-78
2021/03/10 08:02:58;;;;;;;20.67;8.82;;;8.90;46.40;;;;;;6124446;29;20035;-78
2021/03/10 08:06:07;;;;;;;19.35;8.65;;;9.00;46.30;;;;;;6107125;29;20044;-80
2021/03/10 08:09:09;;;;;;;18.52;8.48;;;9.10;46.20;;;;;;6135160;28;20051;-80
2021/03/10 08:12:11;;;;;;;20.88;9.45;;;9.20;45.80;;;;;;6115296;29;20042;-78
2021/03/10 08:15:23;;;;;;;27.52;10.05;;;9.20;45.60;;;;;;6132847;29;20031;-79
2021/03/10 08:18:25;;;;;;;24.23;11.02;;;9.30;45.50;;;;;;6145007;29;20055;-78
2021/03/10 08:21:26;;;;;;;31.02;10.27;;;9.40;45.40;;;;;;6107175;29;20055;-77
2021/03/10 08:24:28;;;;;;;25.40;11.32;;;9.50;45.20;;;;;;6141956;29;20469;-78
2021/03/10 08:27:38;;;;;;;23.38;10.70;;;9.70;45.10;;;;;;6132064;28;20054;-79
2021/03/10 08:30:39;;;;;;;24.15;9.63;;;9.80;44.80;;;;;;6150033;28;20035;-78
2021/03/10 08:33:51;;;;;;;26.73;10.70;;;9.90;44.50;;;;;;6131733;28;20043;-78
2021/03/10 08:36:52;;;;;;;25.45;9.75;;;9.90;44.40;;;;;;6149444;28;20098;-77
2021/03/10 08:39:54;;;;;;;27.17;11.38;;;10.00;44.40;;;;;;6147645;29;20035;-78
2021/03/10 08:43:01;;;;;;;26.52;10.55;;;10.10;44.30;;;;;;6154167;29;20047;-78
2021/03/10 08:46:03;;;;;;;24.08;10.73;;;10.30;44.10;;;;;;6154592;29;20023;-78
2021/03/10 08:49:14;;;;;;;24.52;11.00;;;10.50;43.90;;;;;;6138967;29;20047;-80
2021/03/10 08:52:16;;;;;;;25.85;9.98;;;10.60;43.60;;;;;;6131500;28;20094;-78
2021/03/10 08:55:24;;;;;;;24.83;10.70;;;10.80;43.40;;;;;;6151302;28;20035;-79
2021/03/10 08:58:25;;;;;;;23.55;10.43;;;10.90;43.20;;;;;;6146164;29;20484;-80
2021/03/10 09:01:27;;;;;;;29.35;11.25;;;11.00;43.00;;;;;;6149072;28;20028;-78
2021/03/10 09:04:28;;;;;;;28.92;11.43;;;11.10;42.90;;;;;;6146669;28;20031;-78
2021/03/10 09:07:31;;;;;;;24.15;11.05;;;11.10;42.80;;;;;;6144155;29;20469;-79
2021/03/10 09:10:34;;;;;;;28.23;11.45;;;11.20;42.50;;;;;;6126094;29;20358;-78
2021/03/10 09:13:45;;;;;;;26.15;10.13;;;11.30;42.40;;;;;;6096781;29;20082;-78
2021/03/10 09:16:55;;;;;;;25.55;10.27;;;11.30;42.10;;;;;;6123831;29;20425;-78
2021/03/10 09:20:10;;;;;;;22.40;10.90;;;11.50;42.10;;;;;;6109096;29;20059;-78
2021/03/10 09:23:24;;;;;;;29.90;10.55;;;11.60;41.90;;;;;;6125223;29;20036;-80
2021/03/10 09:26:39;;;;;;;27.80;10.57;;;11.70;41.60;;;;;;6092404;29;20040;-79
2021/03/10 09:29:42;;;;;;;27.52;10.93;;;11.70;41.40;;;;;;6120907;29;20031;-81
2021/03/10 09:32:48;;;;;;;27.05;9.75;;;11.70;41.20;;;;;;6123786;29;20039;-79
2021/03/10 09:35:59;;;;;;;35.55;11.23;;;11.80;41.30;;;;;;6106374;29;20036;-79
2021/03/10 09:39:05;;;;;;;25.65;11.07;;;11.80;41.10;;;;;;6105709;29;20051;-80
2021/03/10 09:42:19;;;;;;;31.13;11.00;;;11.90;41.00;;;;;;6123805;29;20356;-79
2021/03/10 09:45:36;;;;;;;25.52;10.70;;;11.90;40.90;;;;;;6107633;29;20032;-79
2021/03/10 09:48:40;;;;;;;26.95;11.10;;;11.90;40.90;;;;;;6106181;29;20032;-79
2021/03/10 09:51:47;;;;;;;23.08;10.82;;;12.00;40.50;;;;;;6123414;29;20039;-79
2021/03/10 09:54:53;;;;;;;26.63;11.90;;;12.00;40.40;;;;;;6118995;29;20028;-80
2021/03/10 09:58:05;;;;;;;28.58;11.48;;;12.10;40.40;;;;;;6108366;29;20362;-80
2021/03/10 10:01:11;;;;;;;23.10;10.52;;;12.00;40.40;;;;;;6128021;29;20170;-79
2021/03/10 10:04:13;;;;;;;27.98;10.25;;;12.10;40.30;;;;;;6121110;29;20063;-79
2021/03/10 10:07:16;;;;;;;20.48;10.05;;;12.20;40.10;;;;;;6125193;29;20071;-80
2021/03/10 10:10:36;;;;;;;24.17;10.77;;;12.30;39.90;;;;;;6142279;29;20063;-79
2021/03/10 10:13:40;;;;;;;24.05;10.50;;;12.30;39.50;;;;;;6111127;29;20098;-78
2021/03/10 10:16:42;;;;;;;21.98;9.93;;;12.40;39.30;;;;;;6123319;29;20046;-81
2021/03/10 10:19:50;;;;;;;20.70;9.48;;;12.50;39.00;;;;;;6116090;29;20031;-79
2021/03/10 10:22:53;;;;;;;16.60;8.45;;;12.70;38.80;;;;;;6128633;29;20036;-78
2021/03/10 10:25:56;;;;;;;24.17;9.75;;;12.80;38.50;;;;;;6118756;29;20032;-79
2021/03/10 10:28:57;;;;;;;26.70;11.57;;;12.80;38.20;;;;;;6128727;29;20035;-80
2021/03/10 10:32:00;;;;;;;23.42;10.55;;;12.90;38.20;;;;;;6122270;29;20072;-78
2021/03/10 10:35:05;;;;;;;25.85;10.68;;;13.00;38.00;;;;;;6129168;29;20067;-80
2021/03/10 10:38:08;;;;;;;24.67;10.63;;;13.10;37.80;;;;;;6110668;29;20043;-80
2021/03/10 10:41:10;;;;;;;24.55;10.73;;;13.30;37.70;;;;;;6127275;29;20051;-79
2021/03/10 10:44:11;;;;;;;25.63;10.70;;;13.50;37.50;;;;;;6126653;29;20449;-78
2021/03/10 10:47:12;;;;;;;28.15;10.68;;;13.80;37.20;;;;;;6127402;29;20043;-79
2021/03/10 10:50:15;;;;;;;23.13;10.40;;;14.20;36.60;;;;;;6126128;29;20046;-78
2021/03/10 10:53:19;;;;;;;21.88;9.65;;;14.50;35.70;;;;;;6111447;28;20464;-79
2021/03/10 10:56:22;;;;;;;20.02;10.88;;;14.90;35.20;;;;;;6109030;29;20036;-79
2021/03/10 10:59:23;;;;;;;23.23;10.75;;;15.20;34.60;;;;;;6109213;29;20154;-78
2021/03/10 11:02:25;;;;;;;23.65;10.52;;;15.40;33.80;;;;;;6126942;29;20036;-78
2021/03/10 11:05:34;;;;;;;21.08;10.63;;;15.60;33.50;;;;;;6123214;29;20039;-78
2021/03/10 11:08:38;;;;;;;23.52;10.10;;;15.80;33.30;;;;;;6120171;28;20036;-80
2021/03/10 11:11:40;;;;;;;25.73;10.88;;;16.00;33.10;;;;;;6097215;29;20044;-78
2021/03/10 11:14:41;;;;;;;24.08;9.95;;;16.30;32.80;;;;;;6107136;29;20027;-79
2021/03/10 11:17:50;;;;;;;25.05;10.52;;;16.50;32.50;;;;;;6127742;29;20468;-79
2021/03/10 11:20:52;;;;;;;23.17;9.63;;;16.70;32.00;;;;;;6111850;29;20046;-78
2021/03/10 11:23:53;;;;;;;21.27;9.73;;;16.80;31.80;;;;;;6100765;29;20484;-80
2021/03/10 11:26:56;;;;;;;22.77;10.02;;;17.00;31.60;;;;;;6127191;29;20344;-80
2021/03/10 11:30:08;;;;;;;22.98;10.32;;;17.20;31.30;;;;;;6128781;29;20044;-80
2021/03/10 11:33:12;;;;;;;21.52;10.95;;;17.40;30.50;;;;;;6127632;29;20035;-79
2021/03/10 11:36:19;;;;;;;25.00;11.05;;;17.50;29.80;;;;;;6127288;29;20470;-79
2021/03/10 11:39:24;;;;;;;21.27;10.45;;;17.70;29.60;;;;;;6126889;29;20048;-81
2021/03/10 11:42:27;;;;;;;21.25;10.35;;;17.90;29.60;;;;;;6128176;29;20036;-78
2021/03/10 11:45:29;;;;;;;25.50;10.80;;;18.20;28.70;;;;;;6126835;29;20387;-80
2021/03/10 11:48:30;;;;;;;23.70;10.98;;;18.50;28.00;;;;;;6129030;29;20028;-79
2021/03/10 11:51:31;;;;;;;23.92;10.98;;;18.70;27.90;;;;;;6129078;29;20366;-78
2021/03/10 11:54:32;;;;;;;22.50;11.10;;;19.00;27.10;;;;;;6117442;29;20073;-77
2021/03/10 11:57:33;;;;;;;20.95;9.82;;;19.40;26.90;;;;;;6109797;29;20470;-77
2021/03/10 12:00:37;;;;;;;22.35;10.07;;;19.80;26.70;;;;;;6130500;29;20122;-80
2021/03/10 12:03:45;;;;;;;23.45;9.80;;;20.20;26.20;;;;;;6130247;29;20050;-79
2021/03/10 12:07:02;;;;;;;21.73;10.77;;;20.50;25.80;;;;;;6128068;29;20121;-81
2021/03/10 12:10:06;;;;;;;19.80;9.88;;;20.70;24.80;;;;;;6148361;28;20125;-79
2021/03/10 12:13:11;;;;;;;16.85;9.75;;;20.80;24.50;;;;;;6134802;29;20043;-81
2021/03/10 12:16:12;;;;;;;21.88;9.15;;;21.00;24.20;;;;;;6136028;28;20043;-78
2021/03/10 12:19:13;;;;;;;19.27;8.80;;;21.30;24.00;;;;;;6138724;28;20042;-77
2021/03/10 12:22:14;;;;;;;22.23;10.15;;;21.70;23.90;;;;;;6124161;28;20054;-79
2021/03/10 12:25:15;;;;;;;22.40;9.15;;;22.20;23.40;;;;;;6133749;28;20055;-79
2021/03/10 12:28:16;;;;;;;18.88;9.23;;;22.70;22.70;;;;;;6134559;28;20043;-79
2021/03/10 12:31:17;;;;;;;24.15;10.02;;;23.00;22.40;;;;;;6152122;28;20039;-80
2021/03/10 12:34:18;;;;;;;22.08;9.85;;;23.40;21.80;;;;;;6140902;28;20043;-79
2021/03/10 12:37:19;;;;;;;19.77;9.65;;;23.80;21.70;;;;;;6116741;29;20099;-79
2021/03/10 12:40:25;;;;;;;17.95;9.55;;;24.30;21.20;;;;;;6120757;29;20054;-79
2021/03/10 12:43:26;;;;;;;17.98;9.30;;;24.60;20.70;;;;;;6113884;29;20461;-79
2021/03/10 12:46:27;;;;;;;18.10;9.13;;;24.90;20.40;;;;;;6129826;28;20054;-79
2021/03/10 12:49:28;;;;;;;24.45;9.43;;;25.10;20.30;;;;;;6117553;28;20050;-79
2021/03/10 12:52:29;;;;;;;21.27;9.85;;;25.40;19.90;;;;;;6133129;29;20047;-78
2021/03/10 12:55:30;;;;;;;19.48;9.40;;;25.70;19.80;;;;;;6132852;29;20055;-79
2021/03/10 12:58:33;;;;;;;18.55;9.70;;;25.80;19.70;;;;;;6117509;29;20129;-80
2021/03/10 13:01:34;;;;;;;16.08;9.13;;;26.20;19.40;;;;;;6131802;29;20039;-80
2021/03/10 13:04:35;;;;;;;17.20;9.45;;;26.60;19.10;;;;;;6132696;29;20114;-80
2021/03/10 13:07:37;;;;;;;17.17;8.80;;;26.90;18.70;;;;;;6132174;28;20051;-80
2021/03/10 13:10:39;;;;;;;18.85;8.55;;;27.10;18.30;;;;;;6116273;29;20031;-80
2021/03/10 13:13:39;;;;;;;17.85;9.10;;;26.70;18.30;;;;;;6132014;28;20365;-80
2021/03/10 13:16:41;;;;;;;19.95;8.23;;;25.80;18.90;;;;;;6115162;29;20035;-80
2021/03/10 13:19:42;;;;;;;18.45;9.73;;;24.80;19.50;;;;;;6132803;29;20360;-79
2021/03/10 13:22:43;;;;;;;18.48;9.05;;;23.90;20.30;;;;;;6132964;29;20043;-79
2021/03/10 13:25:44;;;;;;;18.73;8.93;;;23.10;20.90;;;;;;6132279;28;20094;-79
2021/03/10 13:28:45;;;;;;;17.50;9.13;;;22.40;21.30;;;;;;6132039;29;20043;-78
2021/03/10 13:31:46;;;;;;;13.43;7.55;;;21.80;21.90;;;;;;6099444;29;20050;-78
2021/03/10 13:34:48;;;;;;;13.10;7.47;;;21.30;22.10;;;;;;6127692;28;20090;-78
2021/03/10 13:37:49;;;;;;;15.23;7.47;;;20.80;22.60;;;;;;6150673;28;20043;-78
2021/03/10 13:40:50;;;;;;;15.57;6.50;;;20.30;22.90;;;;;;6127646;29;20042;-79
2021/03/10 13:43:51;;;;;;;13.43;6.07;;;19.90;22.90;;;;;;6137501;29;20094;-78
2021/03/10 13:46:53;;;;;;;15.30;6.03;;;19.60;23.10;;;;;;6126442;29;20035;-78
2021/03/10 13:49:54;;;;;;;14.50;6.15;;;19.40;23.10;;;;;;6102665;28;20070;-78
2021/03/10 13:52:55;;;;;;;14.45;6.57;;;19.10;23.70;;;;;;6123276;28;20066;-78
2021/03/10 13:55:56;;;;;;;18.27;6.57;;;18.90;23.70;;;;;;6139416;29;20117;-79
2021/03/10 13:58:57;;;;;;;19.80;7.82;;;18.70;23.90;;;;;;6136365;28;20120;-79
2021/03/10 14:01:58;;;;;;;17.55;7.50;;;18.50;24.10;;;;;;6153506;28;20424;-79
2021/03/10 14:04:59;;;;;;;13.85;6.03;;;18.40;24.00;;;;;;6139213;29;20043;-79
2021/03/10 14:08:01;;;;;;;18.92;6.70;;;18.20;24.20;;;;;;6136334;28;20051;-78
2021/03/10 14:11:02;;;;;;;15.85;7.75;;;18.20;24.50;;;;;;6122437;29;20461;-79
2021/03/10 14:14:03;;;;;;;18.52;7.22;;;18.10;24.70;;;;;;6138997;28;20063;-78
2021/03/10 14:17:04;;;;;;;15.95;6.07;;;18.10;24.80;;;;;;6131049;29;20413;-80
2021/03/10 14:20:30;;;;;;;17.45;6.20;;;18.10;24.70;;;;;;6133960;29;20031;-77
2021/03/10 14:23:56;;;;;;;10.70;5.43;;;18.00;24.80;;;;;;6138285;29;20032;-80
2021/03/10 14:27:22;;;;;;;13.32;5.53;;;18.00;24.80;;;;;;6131450;28;20051;-80
2021/03/10 14:30:48;;;;;;;11.48;5.18;;;17.90;24.60;;;;;;6109309;28;20389;-79
2021/03/10 14:34:14;;;;;;;11.07;5.68;;;17.90;24.60;;;;;;6144171;29;20043;-79
2021/03/10 14:37:41;;;;;;;13.00;6.10;;;17.90;24.80;;;;;;6147450;28;20119;-80
2021/03/10 14:41:07;;;;;;;14.15;5.75;;;17.90;25.00;;;;;;6111535;28;20035;-78
2021/03/10 14:44:35;;;;;;;15.48;6.25;;;17.90;25.30;;;;;;6135928;28;20059;-78
2021/03/10 14:48:01;;;;;;;15.50;5.82;;;18.10;25.50;;;;;;6129099;28;20131;-79
2021/03/10 14:51:27;;;;;;;12.98;5.97;;;18.10;25.40;;;;;;6142193;28;20052;-79
2021/03/10 14:54:55;;;;;;;15.40;6.80;;;18.10;25.50;;;;;;6152006;28;20365;-79
2021/03/10 14:58:21;;;;;;;17.15;6.55;;;18.20;25.70;;;;;;6135595;29;20043;-79
2021/03/10 15:01:46;;;;;;;12.68;6.82;;;18.20;26.00;;;;;;6134926;29;20055;-81
2021/03/10 15:05:13;;;;;;;14.07;7.07;;;18.10;26.20;;;;;;6147450;29;20118;-79
2021/03/10 15:08:39;;;;;;;16.45;7.50;;;18.00;26.40;;;;;;6132041;28;20043;-80
2021/03/10 15:12:05;;;;;;;14.50;7.05;;;18.00;26.40;;;;;;6130107;29;20035;-79
2021/03/10 15:15:31;;;;;;;17.15;6.57;;;17.90;26.40;;;;;;6131599;28;20043;-78
2021/03/10 15:18:57;;;;;;;16.85;6.07;;;17.90;26.40;;;;;;6116974;28;20039;-79
2021/03/10 15:22:23;;;;;;;17.83;7.22;;;17.90;26.40;;;;;;6141416;28;20040;-78
2021/03/10 15:25:49;;;;;;;14.25;7.72;;;17.90;26.40;;;;;;6143926;28;20051;-80
2021/03/10 15:29:15;;;;;;;19.63;7.85;;;17.90;26.50;;;;;;6142776;28;20447;-78
2021/03/10 15:32:41;;;;;;;19.15;6.93;;;17.90;26.60;;;;;;6130515;29;20063;-78
2021/03/10 15:36:09;;;;;;;20.33;7.50;;;17.90;26.60;;;;;;6142500;28;20071;-79
2021/03/10 15:39:34;;;;;;;16.80;7.90;;;18.00;26.70;;;;;;6142049;28;20043;-78
2021/03/10 15:43:01;;;;;;;15.70;7.03;;;18.00;26.70;;;;;;6128185;28;20453;-79
2021/03/10 15:46:27;;;;;;;16.08;6.88;;;17.90;26.70;;;;;;6115827;29;20036;-80
2021/03/10 15:49:53;;;;;;;13.05;6.38;;;17.90;26.80;;;;;;6144055;29;20043;-80
2021/03/10 15:53:20;;;;;;;15.98;7.47;;;17.90;26.70;;;;;;6143887;28;20060;-80